Time;durP1;ratioP1;P1;durP2;ratioP2;P2;SDS_P1;SDS_P2;PMS_P1;PMS_P2;Temp;Humidity;BMP_temperature;BMP_pressure;BME280_temperature;BME280_humidity;BME280_pressure;Samples;Min_cycle;Max_cycle;Signal;HPM_P1;HPM_P2
2022/04/01 00:02:18;;;;;;;;;;;;;;;-1.05;100.00;100736.28;5059237;28;19932;-78
2022/04/01 00:04:44;;;;;;;;;;;;;;;-1.04;100.00;100765.47;5048728;28;20309;-79
2022/04/01 00:07:09;;;;;;;;;;;;;;;-1.09;100.00;100747.44;5063720;28;19916;-78
2022/04/01 00:09:34;;;;;;;;;;;;;;;-1.09;100.00;100750.03;5081726;28;20020;-80
2022/04/01 00:12:00;;;;;;;;;;;;;;;-1.16;100.00;100756.03;5066002;28;19920;-79
2022/04/01 00:14:25;;;;;;;;;;;;;;;-1.19;100.00;100744.00;5065091;28;19936;-80
2022/04/01 00:16:51;;;;;;;;;;;;;;;-1.15;100.00;100745.72;5098614;28;19925;-80
2022/04/01 00:19:17;;;;;;;;;;;;;;;-1.13;100.00;100745.72;5068485;28;20016;-80
2022/04/01 00:21:42;;;;;;;;;;;;;;;-1.16;100.00;100753.47;5072078;28;20011;-79
2022/04/01 00:24:08;;;;;;;;;;;;;;;-1.14;100.00;100749.16;5069119;28;19992;-79
2022/04/01 00:26:33;;;;;;;;;;;;;;;-1.13;100.00;100759.47;5073086;28;19921;-80
2022/04/01 00:28:58;;;;;;;;;;;;;;;-1.14;100.00;100750.03;5070989;28;19923;-81
2022/04/01 00:31:24;;;;;;;;;;;;;;;-1.11;100.00;100756.88;5070765;28;20346;-81
2022/04/01 00:34:15;;;;;;;;;;;;;;;-1.11;100.00;100744.88;5071463;28;20509;-80
2022/04/01 00:36:34;;;;;;;;;;;;;;;-1.13;100.00;100758.59;5072298;28;19916;-80
2022/04/01 00:39:00;;;;;;;;;;;;;;;-1.09;100.00;100756.03;5067595;28;20358;-79
2022/04/01 00:41:25;;;;;;;;;;;;;;;-1.09;100.00;100763.75;5056377;28;19924;-80
2022/04/01 00:44:10;;;;;;;;;;;;;;;-1.14;100.00;100767.19;5061696;28;19920;-80
2022/04/01 00:46:38;;;;;;;;;;;;;;;-1.16;100.00;100774.94;5055684;28;19936;-79
2022/04/01 00:49:04;;;;;;;;;;;;;;;-1.14;100.00;100762.91;5058154;28;19917;-79
2022/04/01 00:51:29;;;;;;;;;;;;;;;-1.14;100.00;100773.22;5060108;28;20293;-79
2022/04/01 00:53:55;;;;;;;;;;;;;;;-1.10;100.00;100771.50;5066536;28;19928;-80
2022/04/01 00:56:23;;;;;;;;;;;;;;;-1.14;100.00;100765.50;5071674;28;19924;-80
2022/04/01 00:58:49;;;;;;;;;;;;;;;-1.13;100.00;100774.06;5067574;28;19916;-80
2022/04/01 01:01:14;;;;;;;;;;;;;;;-1.14;100.00;100783.53;5071588;28;19963;-79
2022/04/01 01:03:40;;;;;;;;;;;;;;;-1.14;100.00;100773.22;5072254;28;20323;-79
2022/04/01 01:06:08;;;;;;;;;;;;;;;-1.07;100.00;100778.38;5071010;28;19927;-79
2022/04/01 01:08:33;;;;;;;;;;;;;;;-1.07;100.00;100784.41;5071923;28;19955;-77
2022/04/01 01:11:01;;;;;;;;;;;;;;;-1.09;100.00;100779.22;5070052;28;19971;-79
2022/04/01 01:13:26;;;;;;;;;;;;;;;-1.07;100.00;100788.69;5068893;28;20018;-79
2022/04/01 01:15:52;;;;;;;;;;;;;;;-1.04;100.00;100786.97;5068380;28;19925;-79
2022/04/01 01:18:17;;;;;;;;;;;;;;;-1.09;100.00;100779.22;5070662;28;19920;-79
2022/04/01 01:20:42;;;;;;;;;;;;;;;-1.09;100.00;100786.97;5070298;28;20059;-79
2022/04/01 01:23:12;;;;;;;;;;;;;;;-1.12;100.00;100779.25;5070827;28;20445;-78
2022/04/01 01:25:38;;;;;;;;;;;;;;;-1.13;100.00;100780.09;5072576;28;20027;-78
2022/04/01 01:28:04;;;;;;;;;;;;;;;-1.11;100.00;100780.97;5068899;28;19920;-79
2022/04/01 01:30:29;;;;;;;;;;;;;;;-1.14;100.00;100791.28;5069344;28;19920;-79
2022/04/01 01:32:55;;;;;;;;;;;;;;;-1.07;100.00;100794.72;5066677;28;19932;-79
2022/04/01 01:35:20;;;;;;;;;;;;;;;-1.14;100.00;100791.28;5064398;28;20344;-79
2022/04/01 01:37:45;;;;;;;;;;;;;;;-1.13;100.00;100797.28;5069402;28;19923;-79
2022/04/01 01:40:11;;;;;;;;;;;;;;;-1.07;100.00;100793.84;5070827;28;19920;-78
2022/04/01 01:42:36;;;;;;;;;;;;;;;-1.12;100.00;100792.13;5073906;28;20374;-78
2022/04/01 01:45:02;;;;;;;;;;;;;;;-1.09;100.00;100793.84;5069948;28;20001;-78
2022/04/01 01:47:27;;;;;;;;;;;;;;;-1.04;100.00;100796.44;5072260;28;19916;-77
2022/04/01 01:55:14;;;;;;;;;;;;;;;-0.91;100.00;100800.72;5048360;28;19985;-77
2022/04/01 01:57:39;;;;;;;;;;;;;;;-0.90;100.00;100805.03;5050986;28;19921;-75
2022/04/01 02:00:10;;;;;;;;;;;;;;;-0.87;100.00;100807.59;5049742;28;19923;-76
2022/04/01 02:02:36;;;;;;;;;;;;;;;-0.88;100.00;100808.44;5082420;28;19917;-79
2022/04/01 02:05:02;;;;;;;;;;;;;;;-0.91;100.00;100805.88;5066205;28;20291;-76
2022/04/01 02:07:27;;;;;;;;;;;;;;;-0.87;100.00;100807.59;5066051;28;19924;-78
2022/04/01 02:09:53;;;;;;;;;;;;;;;-0.81;100.00;100812.75;5068305;28;19917;-79
2022/04/01 02:12:18;;;;;;;;;;;;;;;-0.79;100.00;100813.63;5070353;28;20398;-77
2022/04/01 02:14:44;;;;;;;;;;;;;;;-0.83;100.00;100814.47;5085619;28;19935;-76
2022/04/01 02:17:09;;;;;;;;;;;;;;;-0.81;100.00;100820.50;5068543;28;19916;-78
2022/04/01 02:19:34;;;;;;;;;;;;;;;-0.83;100.00;100823.94;5071901;28;19917;-80
2022/04/01 02:22:00;;;;;;;;;;;;;;;-0.83;100.00;100811.91;5069195;28;19920;-77
2022/04/01 02:24:26;;;;;;;;;;;;;;;-0.87;100.00;100830.81;5069073;28;19999;-79
2022/04/01 02:26:52;;;;;;;;;;;;;;;-0.88;100.00;100826.50;5070796;28;19963;-78
2022/04/01 02:29:19;;;;;;;;;;;;;;;-0.81;100.00;100828.25;5069452;28;19926;-75
2022/04/01 02:31:44;;;;;;;;;;;;;;;-0.84;100.00;100830.81;5071075;28;19920;-76
2022/04/01 02:34:10;;;;;;;;;;;;;;;-0.75;100.00;100832.53;5101186;28;19920;-78
2022/04/01 02:36:35;;;;;;;;;;;;;;;-0.69;100.00;100842.00;5069742;28;19924;-78
2022/04/01 02:39:01;;;;;;;;;;;;;;;-0.63;100.00;100845.44;5068998;28;20629;-76
2022/04/01 02:41:26;;;;;;;;;;;;;;;-0.70;100.00;100828.22;5072119;28;19917;-77
2022/04/01 02:44:08;;;;;;;;;;;;;;;-0.69;100.00;100837.69;5070581;28;20380;-78
2022/04/01 02:46:34;;;;;;;;;;;;;;;-0.72;100.00;100844.56;5069767;28;19927;-76
2022/04/01 02:49:00;;;;;;;;;;;;;;;-0.81;100.00;100838.56;5101575;28;19921;-77
2022/04/01 02:51:25;;;;;;;;;;;;;;;-0.87;100.00;100848.84;5069686;28;20369;-77
2022/04/01 02:53:50;;;;;;;;;;;;;;;-0.88;100.00;100859.19;5070241;28;19931;-77
2022/04/01 02:56:15;;;;;;;;;;;;;;;-0.81;100.00;100848.00;5069301;28;19988;-78
2022/04/01 02:58:41;;;;;;;;;;;;;;;-0.74;100.00;100848.88;5102483;28;19921;-75
2022/04/01 03:01:06;;;;;;;;;;;;;;;-0.67;100.00;100859.19;5069280;28;20054;-76
2022/04/01 03:03:32;;;;;;;;;;;;;;;-0.63;100.00;100860.91;5072003;28;19921;-76
2022/04/01 03:05:57;;;;;;;;;;;;;;;-0.56;100.00;100864.38;5069547;28;19932;-76
2022/04/01 03:08:22;;;;;;;;;;;;;;;-0.49;100.00;100860.91;5069654;28;19917;-76
2022/04/01 03:10:48;;;;;;;;;;;;;;;-0.50;100.00;100871.25;5070048;28;19966;-77
2022/04/01 03:13:13;;;;;;;;;;;;;;;-0.51;100.00;100861.78;5100906;28;19916;-78
2022/04/01 03:15:38;;;;;;;;;;;;;;;-0.48;100.00;100865.22;5069780;28;19935;-77
2022/04/01 03:18:04;;;;;;;;;;;;;;;-0.43;100.00;100872.06;5100841;28;19928;-76
2022/04/01 03:20:35;;;;;;;;;;;;;;;-0.44;100.00;100870.38;5072167;28;19939;-77
2022/04/01 03:23:00;;;;;;;;;;;;;;;-0.43;100.00;100885.84;5069745;28;20378;-77
2022/04/01 03:25:32;;;;;;;;;;;;;;;-0.47;100.00;100868.63;5069537;28;20021;-77
2022/04/01 03:27:58;;;;;;;;;;;;;;;-0.52;100.00;100871.22;5069134;28;19970;-76
2022/04/01 03:30:23;;;;;;;;;;;;;;;-0.42;100.00;100872.09;5068866;28;19921;-77
2022/04/01 03:32:48;;;;;;;;;;;;;;;-0.43;100.00;100878.09;5069272;28;19923;-76
2022/04/01 03:35:15;;;;;;;;;;;;;;;-0.47;100.00;100879.84;5068199;28;19948;-76
2022/04/01 03:37:41;;;;;;;;;;;;;;;-0.55;100.00;100876.38;5071291;28;19952;-75
2022/04/01 03:40:06;;;;;;;;;;;;;;;-0.59;100.00;100872.09;5068050;28;19962;-75
2022/04/01 03:42:32;;;;;;;;;;;;;;;-0.58;100.00;100870.34;5071504;28;19966;-77
2022/04/01 03:45:03;;;;;;;;;;;;;;;-0.57;100.00;100872.97;5069298;28;19924;-77
2022/04/01 03:47:38;;;;;;;;;;;;;;;-0.58;100.00;100884.13;5069601;28;19924;-77
2022/04/01 03:50:04;;;;;;;;;;;;;;;-0.53;100.00;100877.25;5069132;28;19965;-76
2022/04/01 03:52:31;;;;;;;;;;;;;;;-0.49;100.00;100878.97;5058377;28;20433;-77
2022/04/01 03:54:59;;;;;;;;;;;;;;;-0.55;100.00;100878.97;5086999;28;19917;-76
2022/04/01 03:57:30;;;;;;;;;;;;;;;-0.57;100.00;100888.44;5068741;28;19962;-77
2022/04/01 03:59:57;;;;;;;;;;;;;;;-0.55;100.00;100886.69;5067500;28;20032;-76
2022/04/01 04:02:24;;;;;;;;;;;;;;;-0.60;100.00;100893.59;5070733;28;19925;-77
2022/04/01 04:04:51;;;;;;;;;;;;;;;-0.62;100.00;100887.56;5066737;28;20015;-77
2022/04/01 04:07:17;;;;;;;;;;;;;;;-0.56;100.00;100900.50;5071497;28;19928;-78
2022/04/01 04:09:43;;;;;;;;;;;;;;;-0.52;100.00;100893.59;5074286;28;20374;-76
2022/04/01 04:12:13;;;;;;;;;;;;;;;-0.49;100.00;100896.16;5072336;28;19920;-79
2022/04/01 04:14:39;;;;;;;;;;;;;;;-0.42;100.00;100900.47;5075034;28;19924;-78
2022/04/01 04:17:11;;;;;;;;;;;;;;;-0.42;100.00;100902.19;5070505;28;20057;-80
2022/04/01 04:19:46;;;;;;;;;;;;;;;-0.46;100.00;100903.91;5068222;28;19920;-79
2022/04/01 04:22:13;;;;;;;;;;;;;;;-0.39;100.00;100902.19;5071106;28;20644;-80
2022/04/01 04:24:42;;;;;;;;;;;;;;;-0.41;100.00;100919.38;5074329;28;19920;-79
2022/04/01 04:27:11;;;;;;;;;;;;;;;-0.43;100.00;100913.38;5070373;28;20412;-78
2022/04/01 04:29:42;;;;;;;;;;;;;;;-0.43;100.00;100921.09;5072525;28;19922;-78
2022/04/01 04:32:13;;;;;;;;;;;;;;;-0.36;100.00;100925.44;5070295;28;19920;-81
2022/04/01 04:34:41;;;;;;;;;;;;;;;-0.42;100.00;100928.00;5073601;28;19974;-80
2022/04/01 04:37:10;;;;;;;;;;;;;;;-0.43;100.00;100926.28;5071296;28;19924;-81
2022/04/01 04:39:38;;;;;;;;;;;;;;;-0.36;100.00;100912.53;5074325;28;19916;-80
2022/04/01 04:42:04;;;;;;;;;;;;;;;-0.38;100.00;100933.16;5071446;28;19931;-79
2022/04/01 04:44:30;;;;;;;;;;;;;;;-0.29;100.00;100923.72;5074825;28;19920;-81
2022/04/01 04:47:00;;;;;;;;;;;;;;;-0.37;100.00;100936.59;5073082;28;19923;-80
2022/04/01 04:49:27;;;;;;;;;;;;;;;-0.29;100.00;100937.47;5034185;28;19917;-81
2022/04/01 04:51:53;;;;;;;;;;;;;;;-0.33;100.00;100946.09;5029018;28;19961;-81
2022/04/01 04:54:20;;;;;;;;;;;;;;;-0.30;100.00;100953.81;5037558;28;19952;-78
2022/04/01 04:56:46;;;;;;;;;;;;;;;-0.32;100.00;100950.38;5035448;28;19917;-79
2022/04/01 04:59:12;;;;;;;;;;;;;;;-0.35;100.00;100958.97;5032153;28;19924;-79
2022/04/01 05:01:53;;;;;;;;;;;;;;;-0.27;99.36;100953.81;5032191;28;19917;-84
2022/04/01 05:04:39;;;;;;;;;;;;;;;-0.29;100.00;100959.84;5051233;28;19917;-82
2022/04/01 05:07:08;;;;;;;;;;;;;;;-0.29;100.00;100965.84;5046586;28;20009;-83
2022/04/01 05:09:37;;;;;;;;;;;;;;;-0.26;100.00;100971.03;5055906;28;20282;-85
2022/04/01 05:12:05;;;;;;;;;;;;;;;-0.18;99.04;100963.28;5051584;28;20374;-84
2022/04/01 05:14:38;;;;;;;;;;;;;;;-0.24;98.91;100963.28;5052901;28;19970;-84
2022/04/01 05:17:04;;;;;;;;;;;;;;;-0.09;98.03;100968.44;5052448;28;20873;-84
2022/04/01 05:19:31;;;;;;;;;;;;;;;-0.08;96.56;100969.28;5052113;28;19921;-85
2022/04/01 05:22:02;;;;;;;;;;;;;;;-0.16;100.00;100971.88;5053533;28;20007;-86
2022/04/01 05:24:43;;;;;;;;;;;;;;;-0.05;97.38;100971.88;5043823;28;19924;-86
2022/04/01 05:27:24;;;;;;;;;;;;;;;-0.11;99.82;101000.31;5049161;28;19982;-82
2022/04/01 05:29:57;;;;;;;;;;;;;;;-0.14;99.94;100995.13;5038910;28;19952;-85
2022/04/01 05:32:25;;;;;;;;;;;;;;;-0.10;96.29;100991.66;5065963;28;19921;-88
2022/04/01 05:34:51;;;;;;;;;;;;;;;-0.05;95.70;101001.13;5051009;28;20012;-87
2022/04/01 05:37:17;;;;;;;;;;;;;;;-0.08;96.09;100989.94;5051720;28;19917;-88
2022/04/01 05:39:47;;;;;;;;;;;;;;;-0.02;96.39;101006.31;5084593;28;19924;-86
2022/04/01 05:42:13;;;;;;;;;;;;;;;-0.02;95.50;100998.56;5051876;28;19995;-85
2022/04/01 05:44:41;;;;;;;;;;;;;;;-0.04;96.18;101007.19;5054526;28;20318;-89
2022/04/01 05:47:07;;;;;;;;;;;;;;;-0.02;96.92;101026.13;5049596;28;19920;-86
2022/04/01 05:49:35;;;;;;;;;;;;;;;-0.04;97.48;101027.84;5050881;28;19916;-87
2022/04/01 05:52:01;;;;;;;;;;;;;;;0.02;96.27;101016.66;5047190;28;19924;-82
2022/04/01 05:54:28;;;;;;;;;;;;;;;-0.02;97.30;101026.13;5052027;28;19917;-86
2022/04/01 05:56:53;;;;;;;;;;;;;;;-0.03;96.99;101029.56;5051075;28;19923;-85
2022/04/01 05:59:20;;;;;;;;;;;;;;;0.05;97.17;101030.41;5068750;28;19920;-85
2022/04/01 06:02:00;;;;;;;;;;;;;;;0.03;97.59;101033.88;5068312;28;19921;-87
2022/04/01 06:04:37;;;;;;;;;;;;;;;0.06;98.97;101047.66;5047059;28;19921;-87
2022/04/01 06:07:09;;;;;;;;;;;;;;;-0.01;98.06;101043.34;5049954;28;19927;-86
2022/04/01 06:09:35;;;;;;;;;;;;;;;0.01;99.15;101045.91;5051397;28;19939;-88
2022/04/01 06:12:01;;;;;;;;;;;;;;;0.08;98.96;101060.53;5032984;28;19953;-82
2022/04/01 06:14:34;;;;;;;;;;;;;;;0.01;99.51;101061.41;5062976;28;19964;-84
2022/04/01 06:17:05;;;;;;;;;;;;;;;0.07;96.42;101049.38;5032530;28;20315;-84
2022/04/01 06:19:34;;;;;;;;;;;;;;;0.13;94.40;101033.00;5051263;28;19940;-85
2022/04/01 06:22:03;;;;;;;;;;;;;;;0.23;92.67;101036.44;5052691;28;19935;-83
2022/04/01 06:24:44;;;;;;;;;;;;;;;0.28;92.85;101025.22;5051495;28;19928;-85
2022/04/01 06:27:11;;;;;;;;;;;;;;;0.25;93.08;101040.75;5055118;28;19939;-82
2022/04/01 06:29:38;;;;;;;;;;;;;;;0.27;93.66;101051.97;5036710;28;19917;-84
2022/04/01 06:32:05;;;;;;;;;;;;;;;0.53;91.73;101045.88;5044878;28;20345;-85
2022/04/01 06:34:36;;;;;;;;;;;;;;;0.62;88.61;101029.47;5068032;28;20290;-84
2022/04/01 06:37:03;;;;;;;;;;;;;;;0.80;85.91;101019.94;5053881;28;20887;-81
2022/04/01 06:39:45;;;;;;;;;;;;;;;0.88;85.29;101025.97;5068397;28;19921;-80
2022/04/01 06:42:13;;;;;;;;;;;;;;;0.93;85.61;101039.72;5051807;28;19956;-82
2022/04/01 06:44:39;;;;;;;;;;;;;;;1.02;82.62;101024.16;5061161;28;19931;-83
2022/04/01 06:47:05;;;;;;;;;;;;;;;1.13;83.46;101026.72;5046766;28;19916;-81
2022/04/01 06:49:30;;;;;;;;;;;;;;;1.20;83.85;101025.81;5049198;28;19928;-81
2022/04/01 06:51:56;;;;;;;;;;;;;;;1.15;79.30;101009.47;5064610;28;19932;-80
2022/04/01 06:54:22;;;;;;;;;;;;;;;1.29;81.42;101017.16;5050010;28;19923;-78
2022/04/01 06:56:47;;;;;;;;;;;;;;;1.26;81.69;101030.09;5053308;28;20008;-78
2022/04/01 06:59:13;;;;;;;;;;;;;;;1.23;80.56;101038.75;5050920;28;19917;-78
2022/04/01 07:01:39;;;;;;;;;;;;;;;1.18;80.64;101024.09;5051052;28;19928;-79
2022/04/01 07:04:04;;;;;;;;;;;;;;;1.19;83.62;101049.13;5051867;28;19962;-78
2022/04/01 07:06:30;;;;;;;;;;;;;;;1.11;80.82;101033.63;5051060;28;19920;-80
2022/04/01 07:08:55;;;;;;;;;;;;;;;1.14;82.36;101043.09;5050942;28;19924;-80
2022/04/01 07:11:21;;;;;;;;;;;;;;;1.14;83.06;101058.63;5050299;28;19925;-80
2022/04/01 07:13:46;;;;;;;;;;;;;;;1.08;83.85;101052.63;5052303;28;19920;-80
2022/04/01 07:16:13;;;;;;;;;;;;;;;1.17;82.82;101058.63;5049761;28;20011;-78
2022/04/01 07:18:39;;;;;;;;;;;;;;;1.18;86.70;101071.53;5049778;28;19935;-78
2022/04/01 07:21:04;;;;;;;;;;;;;;;1.13;85.34;101078.47;5050782;28;19921;-77
2022/04/01 07:23:32;;;;;;;;;;;;;;;1.08;87.19;101094.00;5050578;28;19921;-77
2022/04/01 07:25:57;;;;;;;;;;;;;;;1.00;88.95;101100.06;5048217;28;19924;-78
2022/04/01 07:28:23;;;;;;;;;;;;;;;1.00;90.56;101111.25;5045648;28;20337;-77
2022/04/01 07:30:48;;;;;;;;;;;;;;;1.02;91.40;101119.03;5049381;28;19921;-79
2022/04/01 07:33:13;;;;;;;;;;;;;;;1.04;90.11;101096.63;5046983;28;19950;-79
2022/04/01 07:35:39;;;;;;;;;;;;;;;1.02;90.50;101112.13;5057210;28;19996;-79
2022/04/01 07:38:04;;;;;;;;;;;;;;;1.01;89.02;101105.22;5049745;28;20002;-76
2022/04/01 07:40:30;;;;;;;;;;;;;;;1.02;89.09;101108.69;5049473;28;19920;-79
2022/04/01 07:42:55;;;;;;;;;;;;;;;1.07;90.47;101109.53;5051500;28;20005;-78
2022/04/01 07:45:21;;;;;;;;;;;;;;;1.04;86.96;101097.47;5049262;28;19983;-78
2022/04/01 07:47:47;;;;;;;;;;;;;;;1.08;88.44;101114.72;5049262;28;20348;-78
2022/04/01 07:50:14;;;;;;;;;;;;;;;1.07;89.76;101131.09;5049310;28;20550;-79
2022/04/01 07:52:40;;;;;;;;;;;;;;;1.05;90.51;101135.41;5035964;28;20292;-78
2022/04/01 07:55:06;;;;;;;;;;;;;;;1.03;89.76;101136.28;5049304;28;19924;-77
2022/04/01 07:57:32;;;;;;;;;;;;;;;1.00;88.12;101128.53;5049716;28;19949;-78
2022/04/01 07:59:57;;;;;;;;;;;;;;;1.02;90.15;101139.75;5064443;28;19921;-77
2022/04/01 08:02:22;;;;;;;;;;;;;;;1.02;92.12;101145.75;5048864;28;20362;-76
2022/04/01 08:04:48;;;;;;;;;;;;;;;1.06;89.91;101139.72;5048754;28;19975;-77
2022/04/01 08:07:13;;;;;;;;;;;;;;;1.10;89.26;101145.75;5049369;28;20301;-77
2022/04/01 08:09:38;;;;;;;;;;;;;;;1.04;88.92;101145.78;5049539;28;19959;-77
2022/04/01 08:12:04;;;;;;;;;;;;;;;1.11;87.90;101133.66;5047952;28;19927;-78
2022/04/01 08:14:29;;;;;;;;;;;;;;;1.15;89.52;101146.63;5047341;28;19950;-78
2022/04/01 08:16:56;;;;;;;;;;;;;;;1.15;86.74;101153.50;5079047;28;19925;-78
2022/04/01 08:19:22;;;;;;;;;;;;;;;1.29;85.14;101120.69;5049164;28;19929;-78
2022/04/01 08:21:49;;;;;;;;;;;;;;;1.30;86.50;101132.75;5048537;28;19923;-78
2022/04/01 08:24:14;;;;;;;;;;;;;;;1.37;86.69;101143.97;5049441;28;19916;-78
2022/04/01 08:26:39;;;;;;;;;;;;;;;1.67;87.61;101158.47;5048968;28;19916;-77
2022/04/01 08:29:05;;;;;;;;;;;;;;;1.66;82.08;101132.59;5046325;28;19917;-81
2022/04/01 08:31:30;;;;;;;;;;;;;;;1.61;83.14;101134.34;5049473;28;20020;-80
2022/04/01 08:33:56;;;;;;;;;;;;;;;1.60;83.02;101145.59;5050080;28;19917;-78
2022/04/01 08:36:22;;;;;;;;;;;;;;;1.90;84.64;101135.91;5047802;28;20410;-79
2022/04/01 08:38:48;;;;;;;;;;;;;;;1.93;81.57;101131.56;5045421;28;19971;-77
2022/04/01 08:41:18;;;;;;;;;;;;;;;1.89;79.64;101123.84;5049954;28;19948;-79
2022/04/01 08:43:45;;;;;;;;;;;;;;;1.86;82.13;101142.84;5053038;28;20023;-78
2022/04/01 08:46:11;;;;;;;;;;;;;;;2.19;85.11;101166.84;5050891;28;19921;-78
2022/04/01 08:48:37;;;;;;;;;;;;;;;2.04;78.96;101133.22;5050816;28;19917;-78
2022/04/01 08:51:02;;;;;;;;;;;;;;;2.08;81.95;101155.69;5048811;28;19921;-76
2022/04/01 08:53:27;;;;;;;;;;;;;;;2.34;81.33;101165.00;5050783;28;19928;-75
2022/04/01 08:55:55;;;;;;;;;;;;;;;2.40;82.50;101175.34;5050119;28;20412;-77
2022/04/01 08:58:21;;;;;;;;;;;;;;;2.49;81.51;101170.06;5050258;28;19924;-76
2022/04/01 09:00:46;;;;;;;;;;;;;;;2.55;82.26;101170.00;5051598;28;20289;-77
2022/04/01 09:03:12;;;;;;;;;;;;;;;2.97;83.10;101179.19;5050226;28;19929;-77
2022/04/01 09:05:43;;;;;;;;;;;;;;;3.03;84.54;101187.72;5051095;28;19968;-77
2022/04/01 09:08:08;;;;;;;;;;;;;;;3.01;79.91;101173.06;5051861;28;19921;-78
2022/04/01 09:10:49;;;;;;;;;;;;;;;3.14;82.63;101185.03;5050536;28;20306;-75
2022/04/01 09:13:14;;;;;;;;;;;;;;;3.01;81.04;101173.06;5051031;28;19940;-77
2022/04/01 09:15:41;;;;;;;;;;;;;;;3.40;83.49;101191.69;5051306;28;19959;-75
2022/04/01 09:18:06;;;;;;;;;;;;;;;3.70;80.97;101189.59;5051060;28;19967;-76
2022/04/01 09:20:41;;;;;;;;;;;;;;;3.46;77.96;101164.78;5048531;28;19944;-76
2022/04/01 09:23:06;;;;;;;;;;;;;;;3.82;81.30;101194.66;5071282;28;19931;-74
2022/04/01 09:25:32;;;;;;;;;;;;;;;3.59;81.83;101200.13;5051635;28;19925;-76
2022/04/01 09:27:58;;;;;;;;;;;;;;;3.30;80.09;101200.47;5048719;28;19917;-76
2022/04/01 09:30:26;;;;;;;;;;;;;;;3.29;85.22;101222.13;5050557;28;20381;-76
2022/04/01 09:32:55;;;;;;;;;;;;;;;3.59;81.00;101213.09;5037808;28;19954;-76
2022/04/01 09:35:23;;;;;;;;;;;;;;;3.78;81.00;101203.34;5047345;28;19925;-75
2022/04/01 09:37:49;;;;;;;;;;;;;;;4.04;80.79;101202.16;5048419;28;19923;-75
2022/04/01 09:40:18;;;;;;;;;;;;;;;4.51;83.14;101217.09;5048260;28;19925;-76
2022/04/01 09:42:46;;;;;;;;;;;;;;;4.43;80.96;101212.00;5048535;28;20386;-76
2022/04/01 09:45:14;;;;;;;;;;;;;;;4.34;81.76;101215.59;5048707;28;19935;-76
2022/04/01 09:47:39;;;;;;;;;;;;;;;4.79;75.83;101178.47;5049050;28;20348;-74
2022/04/01 09:50:13;;;;;;;;;;;;;;;4.22;79.17;101207.97;5049551;28;19917;-75
2022/04/01 09:52:39;;;;;;;;;;;;;;;4.35;80.67;101217.31;5048588;28;19955;-75
2022/04/01 09:55:05;;;;;;;;;;;;;;;4.10;78.19;101209.88;5050557;28;19967;-75
2022/04/01 09:57:30;;;;;;;;;;;;;;;4.24;79.47;101238.31;5050768;28;20459;-73
2022/04/01 09:59:56;;;;;;;;;;;;;;;4.24;76.53;101193.22;5051157;28;19917;-76
2022/04/01 10:02:21;;;;;;;;;;;;;;;4.38;80.34;101235.50;5046784;28;19927;-75
2022/04/01 10:04:46;;;;;;;;;;;;;;;3.95;82.50;101246.47;5047815;28;19921;-75
2022/04/01 10:07:12;;;;;;;;;;;;;;;4.06;79.36;101234.22;5049832;28;19924;-74
2022/04/01 10:09:38;;;;;;;;;;;;;;;4.11;77.86;101216.78;5050593;28;19974;-75
2022/04/01 10:12:08;;;;;;;;;;;;;;;4.15;78.53;101223.69;5045993;28;19923;-75
2022/04/01 10:14:34;;;;;;;;;;;;;;;3.83;79.51;101240.56;5050573;28;19917;-77
2022/04/01 10:17:00;;;;;;;;;;;;;;;3.58;78.14;101223.53;5046067;28;19932;-75
2022/04/01 10:19:28;;;;;;;;;;;;;;;4.34;79.36;101236.41;5033765;28;19951;-76
2022/04/01 10:21:53;;;;;;;;;;;;;;;4.60;80.57;101240.38;5041037;28;19940;-75
2022/04/01 10:24:34;;;;;;;;;;;;;;;4.85;78.50;101233.03;5050395;28;20382;-75
2022/04/01 10:27:07;;;;;;;;;;;;;;;4.74;76.59;101224.53;5030010;28;19972;-75
2022/04/01 10:29:33;;;;;;;;;;;;;;;5.12;76.84;101236.06;5038601;28;20735;-75
2022/04/01 10:32:14;;;;;;;;;;;;;;;4.79;73.05;101210.56;5040395;28;20012;-75
2022/04/01 10:34:46;;;;;;;;;;;;;;;5.26;75.33;101238.41;5049295;28;20290;-74
2022/04/01 10:37:14;;;;;;;;;;;;;;;4.59;75.30;101238.66;5047072;28;19927;-75
2022/04/01 10:39:48;;;;;;;;;;;;;;;3.95;77.13;101242.13;5049000;28;19932;-75
2022/04/01 10:42:13;;;;;;;;;;;;;;;4.09;75.79;101244.53;5049047;28;20626;-74
2022/04/01 10:44:48;;;;;;;;;;;;;;;3.58;77.24;101252.09;5050284;28;19921;-77
2022/04/01 10:47:13;;;;;;;;;;;;;;;3.23;79.81;101272.38;5049883;28;19923;-77
2022/04/01 10:52:21;;;;;;;;;;;;;;;2.87;82.42;101287.38;5046023;28;19947;-78
2022/04/01 10:54:48;;;;;;;;;;;;;;;3.15;82.14;101280.22;5049330;28;19921;-77
2022/04/01 10:57:25;;;;;;;;;;;;;;;3.22;82.54;101288.84;5046809;28;19921;-76
2022/04/01 10:59:51;;;;;;;;;;;;;;;2.96;77.81;101265.69;5046623;28;20440;-77
2022/04/01 11:02:18;;;;;;;;;;;;;;;2.84;80.46;101296.06;5048101;28;19929;-78
2022/04/01 11:04:45;;;;;;;;;;;;;;;2.91;82.54;101287.34;5049834;28;20446;-75
2022/04/01 11:07:25;;;;;;;;;;;;;;;2.89;82.12;101299.47;5050550;28;20282;-76
2022/04/01 11:09:53;;;;;;;;;;;;;;;2.93;82.17;101301.19;5049547;28;19975;-77
2022/04/01 11:12:19;;;;;;;;;;;;;;;2.51;78.53;101266.88;5048880;28;19920;-78
2022/04/01 11:15:00;;;;;;;;;;;;;;;2.55;80.92;101284.13;5049114;28;19956;-74
2022/04/01 11:17:40;;;;;;;;;;;;;;;2.58;82.61;101301.44;5049182;28;19944;-73
2022/04/01 11:20:07;;;;;;;;;;;;;;;2.72;79.28;101267.59;5028754;28;19975;-77
2022/04/01 11:22:32;;;;;;;;;;;;;;;2.66;77.50;101272.81;5049790;28;19920;-76
2022/04/01 11:24:58;;;;;;;;;;;;;;;2.66;78.65;101278.00;5049269;28;20374;-77
2022/04/01 11:27:24;;;;;;;;;;;;;;;2.79;80.18;101303.00;5048232;28;20346;-76
2022/04/01 11:30:06;;;;;;;;;;;;;;;2.50;79.56;101282.44;5050465;28;19928;-74
2022/04/01 11:32:34;;;;;;;;;;;;;;;2.43;79.17;101308.41;5040143;28;20726;-75
2022/04/01 11:34:59;;;;;;;;;;;;;;;2.35;81.38;101302.41;5036591;28;20325;-75
2022/04/01 11:37:25;;;;;;;;;;;;;;;2.48;81.05;101295.41;5042279;28;19921;-75
2022/04/01 11:39:51;;;;;;;;;;;;;;;2.69;80.30;101303.94;5040845;28;19921;-75
2022/04/01 11:42:16;;;;;;;;;;;;;;;2.50;78.95;101295.41;5025774;28;19931;-76
2022/04/01 11:44:58;;;;;;;;;;;;;;;2.39;79.86;101298.91;5035658;28;19993;-75
2022/04/01 11:47:35;;;;;;;;;;;;;;;2.28;80.63;101311.97;5048041;28;20694;-76
2022/04/01 11:50:07;;;;;;;;;;;;;;;2.30;82.34;101312.81;5049604;28;19920;-77
2022/04/01 11:52:41;;;;;;;;;;;;;;;2.40;79.83;101311.03;5046150;28;20355;-75
2022/04/01 11:55:15;;;;;;;;;;;;;;;2.49;79.17;101304.94;5047977;28;19921;-76
2022/04/01 11:57:40;;;;;;;;;;;;;;;2.54;81.57;101323.06;5050631;28;20030;-74
2022/04/01 12:00:14;;;;;;;;;;;;;;;2.72;80.75;101322.09;5048616;28;20412;-75
2022/04/01 12:02:40;;;;;;;;;;;;;;;2.61;78.73;101307.44;5051809;28;19992;-76
2022/04/01 12:05:06;;;;;;;;;;;;;;;2.77;81.39;101320.31;5048485;28;19970;-76
2022/04/01 12:10:20;;;;;;;;;;;;;;;2.51;78.24;101307.50;5048347;28;19917;-79
2022/04/01 12:13:00;;;;;;;;;;;;;;;2.63;79.50;101336.84;5051470;28;19917;-77
2022/04/01 12:15:35;;;;;;;;;;;;;;;2.80;81.14;101317.69;5026451;28;19930;-76
2022/04/01 12:18:04;;;;;;;;;;;;;;;3.02;81.51;101328.81;5033864;28;19921;-77
2022/04/01 12:20:31;;;;;;;;;;;;;;;2.99;78.78;101318.44;5031066;28;20625;-76
2022/04/01 12:22:58;;;;;;;;;;;;;;;3.20;82.99;101334.72;5032963;28;19921;-78
2022/04/01 12:25:23;;;;;;;;;;;;;;;3.03;79.88;101320.13;5030037;28;19932;-77
2022/04/01 12:27:51;;;;;;;;;;;;;;;2.92;80.02;101325.41;5028369;28;19917;-77
2022/04/01 12:30:26;;;;;;;;;;;;;;;3.05;78.71;101333.09;5029334;28;19917;-77
2022/04/01 12:32:53;;;;;;;;;;;;;;;3.01;78.09;101310.63;5035016;28;19920;-77
2022/04/01 12:35:18;;;;;;;;;;;;;;;3.08;81.13;101331.34;5052871;28;19920;-77
2022/04/01 12:37:44;;;;;;;;;;;;;;;3.22;83.77;101344.22;5054280;28;20358;-76
2022/04/01 12:40:10;;;;;;;;;;;;;;;3.31;84.27;101347.63;5053185;28;19924;-77
2022/04/01 12:42:36;;;;;;;;;;;;;;;3.21;79.07;101319.13;5053981;28;19917;-75
2022/04/01 12:45:05;;;;;;;;;;;;;;;2.91;79.53;101326.28;5054587;28;19925;-75
2022/04/01 12:47:32;;;;;;;;;;;;;;;2.84;80.88;101341.88;5052131;28;20392;-76
2022/04/01 12:49:58;;;;;;;;;;;;;;;2.99;81.59;101338.31;5053812;28;19921;-77
2022/04/01 12:52:27;;;;;;;;;;;;;;;3.14;81.01;101335.63;5052376;28;20432;-76